sensor_id;sensor_type;location;lat;lon;timestamp;P1;durP1;ratioP1;P2;durP2;ratioP2
10643;SDS011;5370;50.132;8.626;2022-12-08T00:01:28;20.00;;;11.57;;
10643;SDS011;5370;50.132;8.626;2022-12-08T00:03:57;19.80;;;12.63;;
10643;SDS011;5370;50.132;8.626;2022-12-08T00:09:21;22.90;;;11.47;;
10643;SDS011;5370;50.132;8.626;2022-12-08T00:11:54;17.97;;;11.83;;
10643;SDS011;5370;50.132;8.626;2022-12-08T00:14:44;14.83;;;10.77;;
10643;SDS011;5370;50.132;8.626;2022-12-08T00:17:13;22.17;;;11.67;;
10643;SDS011;5370;50.132;8.626;2022-12-08T00:19:40;18.93;;;11.60;;
10643;SDS011;5370;50.132;8.626;2022-12-08T00:22:06;17.23;;;11.90;;
10643;SDS011;5370;50.132;8.626;2022-12-08T00:24:34;18.10;;;11.63;;
10643;SDS011;5370;50.132;8.626;2022-12-08T00:27:03;16.50;;;11.33;;
10643;SDS011;5370;50.132;8.626;2022-12-08T00:29:30;16.93;;;11.70;;
10643;SDS011;5370;50.132;8.626;2022-12-08T00:31:55;17.73;;;12.10;;
10643;SDS011;5370;50.132;8.626;2022-12-08T00:34:21;18.30;;;11.97;;
10643;SDS011;5370;50.132;8.626;2022-12-08T00:36:46;19.83;;;11.70;;
10643;SDS011;5370;50.132;8.626;2022-12-08T00:39:13;17.63;;;11.13;;
10643;SDS011;5370;50.132;8.626;2022-12-08T00:41:39;17.27;;;11.63;;
10643;SDS011;5370;50.132;8.626;2022-12-08T00:44:23;19.77;;;11.50;;
10643;SDS011;5370;50.132;8.626;2022-12-08T00:46:49;20.37;;;11.60;;
10643;SDS011;5370;50.132;8.626;2022-12-08T00:49:15;19.57;;;12.33;;
10643;SDS011;5370;50.132;8.626;2022-12-08T00:51:41;18.90;;;12.47;;
10643;SDS011;5370;50.132;8.626;2022-12-08T00:54:08;17.63;;;12.10;;
10643;SDS011;5370;50.132;8.626;2022-12-08T00:56:33;18.20;;;12.67;;
10643;SDS011;5370;50.132;8.626;2022-12-08T00:58:59;22.03;;;13.37;;
10643;SDS011;5370;50.132;8.626;2022-12-08T01:01:25;21.27;;;13.40;;
10643;SDS011;5370;50.132;8.626;2022-12-08T01:03:51;19.77;;;12.00;;
10643;SDS011;5370;50.132;8.626;2022-12-08T01:06:17;18.63;;;12.90;;
10643;SDS011;5370;50.132;8.626;2022-12-08T01:08:43;17.70;;;12.13;;
10643;SDS011;5370;50.132;8.626;2022-12-08T01:11:10;19.90;;;12.30;;
10643;SDS011;5370;50.132;8.626;2022-12-08T01:13:37;19.57;;;12.50;;
10643;SDS011;5370;50.132;8.626;2022-12-08T01:16:03;18.87;;;12.67;;
10643;SDS011;5370;50.132;8.626;2022-12-08T01:18:30;18.23;;;12.40;;
10643;SDS011;5370;50.132;8.626;2022-12-08T01:21:00;19.60;;;12.47;;
10643;SDS011;5370;50.132;8.626;2022-12-08T01:23:30;19.27;;;12.67;;
10643;SDS011;5370;50.132;8.626;2022-12-08T01:25:59;21.47;;;13.20;;
10643;SDS011;5370;50.132;8.626;2022-12-08T01:28:29;17.43;;;11.77;;
10643;SDS011;5370;50.132;8.626;2022-12-08T01:30:55;19.77;;;12.93;;
10643;SDS011;5370;50.132;8.626;2022-12-08T01:33:21;19.40;;;12.40;;
10643;SDS011;5370;50.132;8.626;2022-12-08T01:35:47;22.43;;;13.07;;
10643;SDS011;5370;50.132;8.626;2022-12-08T01:38:12;18.67;;;12.63;;
10643;SDS011;5370;50.132;8.626;2022-12-08T01:40:38;18.77;;;12.67;;
10643;SDS011;5370;50.132;8.626;2022-12-08T01:43:03;18.33;;;12.83;;
10643;SDS011;5370;50.132;8.626;2022-12-08T01:45:30;21.33;;;12.37;;
10643;SDS011;5370;50.132;8.626;2022-12-08T01:48:01;21.27;;;13.37;;
10643;SDS011;5370;50.132;8.626;2022-12-08T01:50:31;24.60;;;13.50;;
10643;SDS011;5370;50.132;8.626;2022-12-08T01:53:05;22.90;;;13.27;;
10643;SDS011;5370;50.132;8.626;2022-12-08T01:55:36;19.27;;;12.63;;
10643;SDS011;5370;50.132;8.626;2022-12-08T01:58:13;20.33;;;13.57;;
10643;SDS011;5370;50.132;8.626;2022-12-08T02:00:47;18.37;;;12.40;;
10643;SDS011;5370;50.132;8.626;2022-12-08T02:03:15;18.30;;;12.63;;
10643;SDS011;5370;50.132;8.626;2022-12-08T02:05:50;21.83;;;14.23;;
10643;SDS011;5370;50.132;8.626;2022-12-08T02:08:16;23.37;;;13.37;;
10643;SDS011;5370;50.132;8.626;2022-12-08T02:10:43;18.97;;;12.90;;
10643;SDS011;5370;50.132;8.626;2022-12-08T02:13:11;23.33;;;12.93;;
10643;SDS011;5370;50.132;8.626;2022-12-08T02:15:44;21.77;;;13.73;;
10643;SDS011;5370;50.132;8.626;2022-12-08T02:32:17;20.33;;;13.80;;
10643;SDS011;5370;50.132;8.626;2022-12-08T02:37:35;24.63;;;15.27;;
10643;SDS011;5370;50.132;8.626;2022-12-08T02:45:58;19.90;;;13.40;;
10643;SDS011;5370;50.132;8.626;2022-12-08T02:48:32;27.43;;;13.93;;
10643;SDS011;5370;50.132;8.626;2022-12-08T02:50:58;22.77;;;14.87;;
10643;SDS011;5370;50.132;8.626;2022-12-08T02:53:23;24.70;;;14.63;;
10643;SDS011;5370;50.132;8.626;2022-12-08T02:56:02;20.47;;;14.07;;
10643;SDS011;5370;50.132;8.626;2022-12-08T03:04:24;24.17;;;14.73;;
10643;SDS011;5370;50.132;8.626;2022-12-08T03:07:11;22.33;;;14.67;;
10643;SDS011;5370;50.132;8.626;2022-12-08T03:09:50;27.53;;;15.90;;
10643;SDS011;5370;50.132;8.626;2022-12-08T03:12:30;19.23;;;13.77;;
10643;SDS011;5370;50.132;8.626;2022-12-08T03:15:18;22.97;;;14.03;;
10643;SDS011;5370;50.132;8.626;2022-12-08T03:17:47;19.97;;;14.67;;
10643;SDS011;5370;50.132;8.626;2022-12-08T03:20:19;22.60;;;15.03;;
10643;SDS011;5370;50.132;8.626;2022-12-08T03:22:48;26.00;;;15.73;;
10643;SDS011;5370;50.132;8.626;2022-12-08T03:25:16;24.03;;;15.53;;
10643;SDS011;5370;50.132;8.626;2022-12-08T03:27:47;26.87;;;15.77;;
10643;SDS011;5370;50.132;8.626;2022-12-08T03:30:14;20.90;;;14.27;;
10643;SDS011;5370;50.132;8.626;2022-12-08T03:32:47;21.30;;;13.30;;
10643;SDS011;5370;50.132;8.626;2022-12-08T03:35:25;22.73;;;13.93;;
10643;SDS011;5370;50.132;8.626;2022-12-08T03:38:06;23.07;;;14.93;;
10643;SDS011;5370;50.132;8.626;2022-12-08T03:40:33;27.47;;;15.63;;
10643;SDS011;5370;50.132;8.626;2022-12-08T03:42:58;27.47;;;15.47;;
10643;SDS011;5370;50.132;8.626;2022-12-08T03:45:24;23.97;;;14.40;;
10643;SDS011;5370;50.132;8.626;2022-12-08T03:47:50;23.43;;;14.87;;
10643;SDS011;5370;50.132;8.626;2022-12-08T03:50:15;21.50;;;13.90;;
10643;SDS011;5370;50.132;8.626;2022-12-08T03:52:41;21.90;;;14.40;;
10643;SDS011;5370;50.132;8.626;2022-12-08T03:55:07;21.57;;;13.83;;
10643;SDS011;5370;50.132;8.626;2022-12-08T03:57:32;27.40;;;15.83;;
10643;SDS011;5370;50.132;8.626;2022-12-08T03:59:58;24.30;;;14.53;;
10643;SDS011;5370;50.132;8.626;2022-12-08T04:02:23;31.50;;;16.33;;
10643;SDS011;5370;50.132;8.626;2022-12-08T04:04:49;23.00;;;15.27;;
10643;SDS011;5370;50.132;8.626;2022-12-08T04:07:14;25.30;;;15.67;;
10643;SDS011;5370;50.132;8.626;2022-12-08T04:09:40;23.93;;;14.47;;
10643;SDS011;5370;50.132;8.626;2022-12-08T04:12:06;20.40;;;14.03;;
10643;SDS011;5370;50.132;8.626;2022-12-08T04:14:32;26.53;;;15.13;;
10643;SDS011;5370;50.132;8.626;2022-12-08T04:16:58;25.03;;;14.70;;
10643;SDS011;5370;50.132;8.626;2022-12-08T04:19:23;23.60;;;15.80;;
10643;SDS011;5370;50.132;8.626;2022-12-08T04:21:49;24.33;;;14.47;;
10643;SDS011;5370;50.132;8.626;2022-12-08T04:24:14;27.17;;;15.63;;
10643;SDS011;5370;50.132;8.626;2022-12-08T04:26:40;20.20;;;13.80;;
10643;SDS011;5370;50.132;8.626;2022-12-08T04:29:06;20.87;;;13.73;;
10643;SDS011;5370;50.132;8.626;2022-12-08T04:31:31;20.97;;;13.70;;
10643;SDS011;5370;50.132;8.626;2022-12-08T04:33:57;24.73;;;15.83;;
10643;SDS011;5370;50.132;8.626;2022-12-08T04:36:22;22.43;;;14.30;;
10643;SDS011;5370;50.132;8.626;2022-12-08T04:38:48;22.97;;;14.50;;
10643;SDS011;5370;50.132;8.626;2022-12-08T04:41:13;22.63;;;14.00;;
10643;SDS011;5370;50.132;8.626;2022-12-08T04:43:39;22.40;;;14.77;;
10643;SDS011;5370;50.132;8.626;2022-12-08T04:46:06;25.43;;;14.63;;
10643;SDS011;5370;50.132;8.626;2022-12-08T04:48:32;25.13;;;15.47;;
10643;SDS011;5370;50.132;8.626;2022-12-08T04:51:00;28.47;;;16.20;;
10643;SDS011;5370;50.132;8.626;2022-12-08T04:53:26;25.60;;;14.80;;
10643;SDS011;5370;50.132;8.626;2022-12-08T04:55:51;23.50;;;14.63;;
10643;SDS011;5370;50.132;8.626;2022-12-08T04:58:18;27.90;;;15.53;;
10643;SDS011;5370;50.132;8.626;2022-12-08T05:00:44;26.77;;;15.27;;
10643;SDS011;5370;50.132;8.626;2022-12-08T05:03:11;25.40;;;15.07;;
10643;SDS011;5370;50.132;8.626;2022-12-08T05:05:37;20.77;;;14.90;;
10643;SDS011;5370;50.132;8.626;2022-12-08T05:08:03;24.03;;;15.20;;
10643;SDS011;5370;50.132;8.626;2022-12-08T05:10:29;22.03;;;14.60;;
10643;SDS011;5370;50.132;8.626;2022-12-08T05:12:54;26.07;;;14.97;;
10643;SDS011;5370;50.132;8.626;2022-12-08T05:15:21;25.57;;;15.73;;
10643;SDS011;5370;50.132;8.626;2022-12-08T05:17:47;21.80;;;13.93;;
10643;SDS011;5370;50.132;8.626;2022-12-08T05:20:12;24.60;;;15.53;;
10643;SDS011;5370;50.132;8.626;2022-12-08T05:22:38;25.00;;;15.77;;
10643;SDS011;5370;50.132;8.626;2022-12-08T05:25:03;24.27;;;15.03;;
10643;SDS011;5370;50.132;8.626;2022-12-08T05:27:29;24.40;;;14.33;;
10643;SDS011;5370;50.132;8.626;2022-12-08T05:29:54;22.97;;;14.23;;
10643;SDS011;5370;50.132;8.626;2022-12-08T05:32:20;28.43;;;14.90;;
10643;SDS011;5370;50.132;8.626;2022-12-08T05:34:45;22.17;;;14.40;;
10643;SDS011;5370;50.132;8.626;2022-12-08T05:37:11;21.40;;;13.50;;
10643;SDS011;5370;50.132;8.626;2022-12-08T05:39:36;19.53;;;13.57;;
10643;SDS011;5370;50.132;8.626;2022-12-08T05:42:02;28.40;;;14.93;;
10643;SDS011;5370;50.132;8.626;2022-12-08T05:44:28;21.77;;;14.93;;
10643;SDS011;5370;50.132;8.626;2022-12-08T05:46:53;20.83;;;14.17;;
10643;SDS011;5370;50.132;8.626;2022-12-08T05:49:19;22.73;;;14.77;;
10643;SDS011;5370;50.132;8.626;2022-12-08T05:51:44;23.83;;;14.83;;
10643;SDS011;5370;50.132;8.626;2022-12-08T05:54:10;22.27;;;14.10;;
10643;SDS011;5370;50.132;8.626;2022-12-08T05:56:35;22.00;;;13.30;;
10643;SDS011;5370;50.132;8.626;2022-12-08T05:59:04;21.73;;;14.07;;
10643;SDS011;5370;50.132;8.626;2022-12-08T06:01:30;21.80;;;14.87;;
10643;SDS011;5370;50.132;8.626;2022-12-08T06:03:57;21.07;;;14.17;;
10643;SDS011;5370;50.132;8.626;2022-12-08T06:06:24;22.37;;;12.93;;
10643;SDS011;5370;50.132;8.626;2022-12-08T06:08:50;26.10;;;13.97;;
10643;SDS011;5370;50.132;8.626;2022-12-08T06:11:16;20.43;;;13.77;;
10643;SDS011;5370;50.132;8.626;2022-12-08T06:13:47;19.13;;;12.97;;
10643;SDS011;5370;50.132;8.626;2022-12-08T06:16:13;21.67;;;13.43;;
10643;SDS011;5370;50.132;8.626;2022-12-08T06:18:38;20.97;;;13.90;;
10643;SDS011;5370;50.132;8.626;2022-12-08T06:21:05;20.93;;;13.57;;
10643;SDS011;5370;50.132;8.626;2022-12-08T06:23:32;18.00;;;12.57;;
10643;SDS011;5370;50.132;8.626;2022-12-08T06:26:08;19.97;;;13.07;;
10643;SDS011;5370;50.132;8.626;2022-12-08T06:28:35;21.97;;;13.20;;
10643;SDS011;5370;50.132;8.626;2022-12-08T06:31:05;21.40;;;13.03;;
10643;SDS011;5370;50.132;8.626;2022-12-08T06:33:35;23.93;;;13.77;;
10643;SDS011;5370;50.132;8.626;2022-12-08T06:36:01;18.93;;;12.83;;
10643;SDS011;5370;50.132;8.626;2022-12-08T06:38:28;26.67;;;15.17;;
10643;SDS011;5370;50.132;8.626;2022-12-08T06:40:54;21.47;;;14.53;;
10643;SDS011;5370;50.132;8.626;2022-12-08T06:43:21;22.67;;;14.13;;
10643;SDS011;5370;50.132;8.626;2022-12-08T06:45:46;20.70;;;13.27;;
10643;SDS011;5370;50.132;8.626;2022-12-08T06:48:12;21.50;;;13.33;;
10643;SDS011;5370;50.132;8.626;2022-12-08T06:50:37;21.07;;;12.27;;
10643;SDS011;5370;50.132;8.626;2022-12-08T06:53:03;19.40;;;13.10;;
10643;SDS011;5370;50.132;8.626;2022-12-08T06:55:29;25.13;;;14.27;;
10643;SDS011;5370;50.132;8.626;2022-12-08T06:57:54;21.07;;;13.33;;
10643;SDS011;5370;50.132;8.626;2022-12-08T07:00:20;19.97;;;13.07;;
10643;SDS011;5370;50.132;8.626;2022-12-08T07:02:46;19.30;;;12.53;;
10643;SDS011;5370;50.132;8.626;2022-12-08T07:05:11;22.90;;;12.73;;
10643;SDS011;5370;50.132;8.626;2022-12-08T07:07:37;24.53;;;14.63;;
10643;SDS011;5370;50.132;8.626;2022-12-08T07:10:03;20.30;;;13.97;;
10643;SDS011;5370;50.132;8.626;2022-12-08T07:12:28;24.23;;;14.43;;
10643;SDS011;5370;50.132;8.626;2022-12-08T07:14:54;24.53;;;14.07;;
10643;SDS011;5370;50.132;8.626;2022-12-08T07:17:19;20.73;;;13.73;;
10643;SDS011;5370;50.132;8.626;2022-12-08T07:19:45;20.87;;;14.23;;
10643;SDS011;5370;50.132;8.626;2022-12-08T07:22:11;20.17;;;13.77;;
10643;SDS011;5370;50.132;8.626;2022-12-08T07:24:36;21.47;;;14.20;;
10643;SDS011;5370;50.132;8.626;2022-12-08T07:27:02;20.63;;;13.33;;
10643;SDS011;5370;50.132;8.626;2022-12-08T07:29:27;21.70;;;13.93;;
10643;SDS011;5370;50.132;8.626;2022-12-08T07:31:53;21.27;;;12.40;;
10643;SDS011;5370;50.132;8.626;2022-12-08T07:34:18;23.07;;;14.93;;
10643;SDS011;5370;50.132;8.626;2022-12-08T07:36:44;18.73;;;14.03;;
10643;SDS011;5370;50.132;8.626;2022-12-08T07:39:10;21.43;;;13.50;;
10643;SDS011;5370;50.132;8.626;2022-12-08T07:41:35;20.70;;;14.00;;
10643;SDS011;5370;50.132;8.626;2022-12-08T07:44:01;21.70;;;13.23;;
10643;SDS011;5370;50.132;8.626;2022-12-08T07:46:26;20.87;;;14.53;;
10643;SDS011;5370;50.132;8.626;2022-12-08T07:48:52;20.27;;;13.37;;
10643;SDS011;5370;50.132;8.626;2022-12-08T07:51:18;21.73;;;14.63;;
10643;SDS011;5370;50.132;8.626;2022-12-08T07:53:45;23.40;;;15.03;;
10643;SDS011;5370;50.132;8.626;2022-12-08T07:56:12;24.10;;;13.70;;
10643;SDS011;5370;50.132;8.626;2022-12-08T07:58:38;21.87;;;13.17;;
10643;SDS011;5370;50.132;8.626;2022-12-08T08:01:04;23.27;;;15.27;;
10643;SDS011;5370;50.132;8.626;2022-12-08T08:03:30;21.47;;;13.73;;
10643;SDS011;5370;50.132;8.626;2022-12-08T08:06:02;25.20;;;14.93;;
10643;SDS011;5370;50.132;8.626;2022-12-08T08:08:28;24.43;;;14.97;;
10643;SDS011;5370;50.132;8.626;2022-12-08T08:10:54;21.33;;;15.00;;
10643;SDS011;5370;50.132;8.626;2022-12-08T08:13:19;26.27;;;14.47;;
10643;SDS011;5370;50.132;8.626;2022-12-08T08:15:45;19.37;;;13.57;;
10643;SDS011;5370;50.132;8.626;2022-12-08T08:18:10;24.47;;;13.63;;
10643;SDS011;5370;50.132;8.626;2022-12-08T08:20:36;19.80;;;13.80;;
10643;SDS011;5370;50.132;8.626;2022-12-08T08:23:02;19.43;;;11.90;;
10643;SDS011;5370;50.132;8.626;2022-12-08T08:25:27;18.07;;;12.37;;
10643;SDS011;5370;50.132;8.626;2022-12-08T08:27:53;21.87;;;13.70;;
10643;SDS011;5370;50.132;8.626;2022-12-08T08:30:19;24.83;;;14.37;;
10643;SDS011;5370;50.132;8.626;2022-12-08T08:32:45;22.43;;;14.17;;
10643;SDS011;5370;50.132;8.626;2022-12-08T08:35:11;23.27;;;13.50;;
10643;SDS011;5370;50.132;8.626;2022-12-08T08:37:36;23.00;;;13.97;;
10643;SDS011;5370;50.132;8.626;2022-12-08T08:40:02;28.60;;;15.63;;
10643;SDS011;5370;50.132;8.626;2022-12-08T08:42:28;23.83;;;14.77;;
10643;SDS011;5370;50.132;8.626;2022-12-08T08:44:53;22.47;;;14.40;;
10643;SDS011;5370;50.132;8.626;2022-12-08T08:47:19;19.77;;;13.93;;
10643;SDS011;5370;50.132;8.626;2022-12-08T08:49:44;21.10;;;12.93;;
10643;SDS011;5370;50.132;8.626;2022-12-08T08:52:10;17.13;;;13.10;;
10643;SDS011;5370;50.132;8.626;2022-12-08T08:54:36;19.83;;;13.40;;
10643;SDS011;5370;50.132;8.626;2022-12-08T08:57:01;20.73;;;12.23;;
10643;SDS011;5370;50.132;8.626;2022-12-08T08:59:27;19.17;;;12.97;;
10643;SDS011;5370;50.132;8.626;2022-12-08T09:01:53;23.00;;;12.83;;
10643;SDS011;5370;50.132;8.626;2022-12-08T09:04:19;19.43;;;12.80;;
10643;SDS011;5370;50.132;8.626;2022-12-08T09:06:46;24.13;;;14.33;;
10643;SDS011;5370;50.132;8.626;2022-12-08T09:09:12;22.37;;;13.63;;
10643;SDS011;5370;50.132;8.626;2022-12-08T09:11:38;21.10;;;13.67;;
10643;SDS011;5370;50.132;8.626;2022-12-08T09:14:04;19.60;;;12.87;;
10643;SDS011;5370;50.132;8.626;2022-12-08T09:16:30;19.43;;;13.17;;
10643;SDS011;5370;50.132;8.626;2022-12-08T09:18:55;17.33;;;12.03;;
10643;SDS011;5370;50.132;8.626;2022-12-08T09:21:22;18.67;;;12.17;;
10643;SDS011;5370;50.132;8.626;2022-12-08T09:23:54;18.53;;;11.40;;
10643;SDS011;5370;50.132;8.626;2022-12-08T09:26:21;18.20;;;10.67;;
10643;SDS011;5370;50.132;8.626;2022-12-08T09:28:48;15.83;;;10.77;;
10643;SDS011;5370;50.132;8.626;2022-12-08T09:31:15;17.20;;;11.67;;
10643;SDS011;5370;50.132;8.626;2022-12-08T09:33:41;15.43;;;11.50;;
10643;SDS011;5370;50.132;8.626;2022-12-08T09:36:07;20.23;;;11.43;;
10643;SDS011;5370;50.132;8.626;2022-12-08T09:38:34;17.70;;;11.27;;
10643;SDS011;5370;50.132;8.626;2022-12-08T09:41:00;18.93;;;11.40;;
10643;SDS011;5370;50.132;8.626;2022-12-08T09:43:39;17.53;;;10.93;;
10643;SDS011;5370;50.132;8.626;2022-12-08T09:46:31;17.53;;;11.63;;
10643;SDS011;5370;50.132;8.626;2022-12-08T09:48:58;16.27;;;11.03;;
10643;SDS011;5370;50.132;8.626;2022-12-08T09:51:26;16.07;;;10.73;;
10643;SDS011;5370;50.132;8.626;2022-12-08T09:53:57;18.00;;;10.20;;
10643;SDS011;5370;50.132;8.626;2022-12-08T09:56:34;16.20;;;9.73;;
10643;SDS011;5370;50.132;8.626;2022-12-08T10:01:47;13.43;;;9.97;;
10643;SDS011;5370;50.132;8.626;2022-12-08T10:04:29;16.33;;;10.23;;
10643;SDS011;5370;50.132;8.626;2022-12-08T10:07:02;13.60;;;9.33;;
10643;SDS011;5370;50.132;8.626;2022-12-08T10:09:38;13.53;;;9.30;;
10643;SDS011;5370;50.132;8.626;2022-12-08T10:12:59;15.37;;;9.40;;
10643;SDS011;5370;50.132;8.626;2022-12-08T10:18:02;13.90;;;7.97;;
10643;SDS011;5370;50.132;8.626;2022-12-08T10:20:36;15.47;;;9.23;;
10643;SDS011;5370;50.132;8.626;2022-12-08T10:25:37;10.60;;;8.57;;
10643;SDS011;5370;50.132;8.626;2022-12-08T10:28:08;12.43;;;9.07;;
10643;SDS011;5370;50.132;8.626;2022-12-08T10:30:34;10.30;;;8.10;;
10643;SDS011;5370;50.132;8.626;2022-12-08T10:33:00;10.67;;;8.10;;
10643;SDS011;5370;50.132;8.626;2022-12-08T10:35:41;14.50;;;8.37;;
10643;SDS011;5370;50.132;8.626;2022-12-08T10:38:29;12.20;;;8.00;;
10643;SDS011;5370;50.132;8.626;2022-12-08T10:43:49;12.10;;;8.13;;
10643;SDS011;5370;50.132;8.626;2022-12-08T10:46:24;12.20;;;8.23;;
10643;SDS011;5370;50.132;8.626;2022-12-08T10:48:52;12.33;;;8.67;;
10643;SDS011;5370;50.132;8.626;2022-12-08T10:51:22;13.47;;;8.10;;
10643;SDS011;5370;50.132;8.626;2022-12-08T10:53:50;12.43;;;8.63;;
10643;SDS011;5370;50.132;8.626;2022-12-08T10:56:16;13.63;;;7.63;;
10643;SDS011;5370;50.132;8.626;2022-12-08T10:58:43;11.80;;;8.50;;
10643;SDS011;5370;50.132;8.626;2022-12-08T11:01:11;12.80;;;8.20;;
10643;SDS011;5370;50.132;8.626;2022-12-08T11:03:43;12.27;;;8.07;;
10643;SDS011;5370;50.132;8.626;2022-12-08T11:08:47;12.40;;;8.93;;
10643;SDS011;5370;50.132;8.626;2022-12-08T11:11:18;13.67;;;8.13;;
10643;SDS011;5370;50.132;8.626;2022-12-08T11:13:44;11.03;;;8.17;;
10643;SDS011;5370;50.132;8.626;2022-12-08T11:16:12;12.73;;;7.90;;
10643;SDS011;5370;50.132;8.626;2022-12-08T11:18:54;9.90;;;7.57;;
10643;SDS011;5370;50.132;8.626;2022-12-08T11:21:22;11.83;;;8.17;;
10643;SDS011;5370;50.132;8.626;2022-12-08T11:24:07;11.70;;;8.23;;
10643;SDS011;5370;50.132;8.626;2022-12-08T11:26:47;10.57;;;6.93;;
10643;SDS011;5370;50.132;8.626;2022-12-08T11:29:16;15.10;;;7.90;;
10643;SDS011;5370;50.132;8.626;2022-12-08T11:31:43;15.50;;;8.37;;
10643;SDS011;5370;50.132;8.626;2022-12-08T11:34:48;15.53;;;8.90;;
10643;SDS011;5370;50.132;8.626;2022-12-08T11:37:10;12.37;;;9.03;;
10643;SDS011;5370;50.132;8.626;2022-12-08T11:39:43;12.90;;;8.53;;
10643;SDS011;5370;50.132;8.626;2022-12-08T11:42:13;14.73;;;9.87;;
10643;SDS011;5370;50.132;8.626;2022-12-08T11:44:49;11.13;;;8.73;;
10643;SDS011;5370;50.132;8.626;2022-12-08T11:47:30;9.33;;;7.17;;
10643;SDS011;5370;50.132;8.626;2022-12-08T11:50:23;11.53;;;8.53;;
10643;SDS011;5370;50.132;8.626;2022-12-08T11:52:52;10.40;;;7.43;;
10643;SDS011;5370;50.132;8.626;2022-12-08T11:55:33;12.70;;;7.93;;
10643;SDS011;5370;50.132;8.626;2022-12-08T11:58:20;14.03;;;7.80;;
10643;SDS011;5370;50.132;8.626;2022-12-08T12:00:50;10.93;;;7.77;;
10643;SDS011;5370;50.132;8.626;2022-12-08T12:08:59;10.13;;;7.57;;
10643;SDS011;5370;50.132;8.626;2022-12-08T12:17:22;9.23;;;6.73;;
10643;SDS011;5370;50.132;8.626;2022-12-08T12:20:28;12.20;;;7.73;;
10643;SDS011;5370;50.132;8.626;2022-12-08T12:23:22;10.83;;;7.03;;
10643;SDS011;5370;50.132;8.626;2022-12-08T12:26:08;9.70;;;7.73;;
10643;SDS011;5370;50.132;8.626;2022-12-08T12:34:20;10.33;;;7.10;;
10643;SDS011;5370;50.132;8.626;2022-12-08T12:36:52;9.40;;;7.77;;
10643;SDS011;5370;50.132;8.626;2022-12-08T12:39:28;10.07;;;6.63;;
10643;SDS011;5370;50.132;8.626;2022-12-08T12:41:57;11.10;;;7.20;;
10643;SDS011;5370;50.132;8.626;2022-12-08T12:44:45;10.53;;;7.50;;
10643;SDS011;5370;50.132;8.626;2022-12-08T12:47:10;10.40;;;7.30;;
10643;SDS011;5370;50.132;8.626;2022-12-08T12:52:03;9.97;;;6.67;;
10643;SDS011;5370;50.132;8.626;2022-12-08T12:54:29;8.73;;;7.03;;
10643;SDS011;5370;50.132;8.626;2022-12-08T12:56:55;10.83;;;7.43;;
10643;SDS011;5370;50.132;8.626;2022-12-08T13:02:26;11.47;;;6.97;;
10643;SDS011;5370;50.132;8.626;2022-12-08T13:07:51;8.93;;;6.17;;
10643;SDS011;5370;50.132;8.626;2022-12-08T13:10:36;10.43;;;6.90;;
10643;SDS011;5370;50.132;8.626;2022-12-08T13:18:26;8.83;;;5.60;;
10643;SDS011;5370;50.132;8.626;2022-12-08T13:26:12;7.33;;;4.90;;
10643;SDS011;5370;50.132;8.626;2022-12-08T13:31:37;8.07;;;5.70;;
10643;SDS011;5370;50.132;8.626;2022-12-08T13:37:00;6.67;;;4.57;;
10643;SDS011;5370;50.132;8.626;2022-12-08T13:39:40;6.77;;;4.37;;
10643;SDS011;5370;50.132;8.626;2022-12-08T13:42:13;5.57;;;3.70;;
10643;SDS011;5370;50.132;8.626;2022-12-08T13:47:48;5.10;;;3.93;;
10643;SDS011;5370;50.132;8.626;2022-12-08T13:50:24;6.03;;;4.00;;
10643;SDS011;5370;50.132;8.626;2022-12-08T13:52:57;5.40;;;4.03;;
10643;SDS011;5370;50.132;8.626;2022-12-08T13:55:27;6.47;;;3.60;;
10643;SDS011;5370;50.132;8.626;2022-12-08T13:58:03;4.80;;;3.90;;
10643;SDS011;5370;50.132;8.626;2022-12-08T14:00:28;4.10;;;3.70;;
10643;SDS011;5370;50.132;8.626;2022-12-08T14:02:55;8.20;;;3.90;;
10643;SDS011;5370;50.132;8.626;2022-12-08T14:05:23;4.77;;;3.13;;
10643;SDS011;5370;50.132;8.626;2022-12-08T14:07:51;4.63;;;3.17;;
10643;SDS011;5370;50.132;8.626;2022-12-08T14:10:22;4.63;;;3.33;;
10643;SDS011;5370;50.132;8.626;2022-12-08T14:12:59;5.80;;;3.60;;
10643;SDS011;5370;50.132;8.626;2022-12-08T14:15:28;4.27;;;3.47;;
10643;SDS011;5370;50.132;8.626;2022-12-08T14:17:56;4.80;;;3.30;;
10643;SDS011;5370;50.132;8.626;2022-12-08T14:20:24;6.53;;;3.50;;
10643;SDS011;5370;50.132;8.626;2022-12-08T14:22:54;4.40;;;3.30;;
10643;SDS011;5370;50.132;8.626;2022-12-08T14:25:20;5.63;;;3.80;;
10643;SDS011;5370;50.132;8.626;2022-12-08T14:27:46;7.33;;;4.00;;
10643;SDS011;5370;50.132;8.626;2022-12-08T14:32:48;7.77;;;3.70;;
10643;SDS011;5370;50.132;8.626;2022-12-08T14:37:56;7.03;;;4.30;;
10643;SDS011;5370;50.132;8.626;2022-12-08T14:40:27;4.40;;;4.00;;
10643;SDS011;5370;50.132;8.626;2022-12-08T14:53:53;4.73;;;3.97;;
10643;SDS011;5370;50.132;8.626;2022-12-08T14:56:35;8.97;;;3.97;;
10643;SDS011;5370;50.132;8.626;2022-12-08T14:59:17;5.67;;;4.07;;
10643;SDS011;5370;50.132;8.626;2022-12-08T15:01:47;4.77;;;3.70;;
10643;SDS011;5370;50.132;8.626;2022-12-08T15:04:16;6.33;;;4.50;;
10643;SDS011;5370;50.132;8.626;2022-12-08T15:09:34;7.30;;;3.63;;
10643;SDS011;5370;50.132;8.626;2022-12-08T15:14:36;7.90;;;4.30;;
10643;SDS011;5370;50.132;8.626;2022-12-08T15:17:34;7.30;;;4.73;;
10643;SDS011;5370;50.132;8.626;2022-12-08T15:20:05;7.57;;;4.33;;
10643;SDS011;5370;50.132;8.626;2022-12-08T15:22:50;5.83;;;4.00;;
10643;SDS011;5370;50.132;8.626;2022-12-08T15:25:16;5.70;;;3.60;;
10643;SDS011;5370;50.132;8.626;2022-12-08T15:27:42;7.20;;;4.87;;
10643;SDS011;5370;50.132;8.626;2022-12-08T15:30:11;5.83;;;3.80;;
10643;SDS011;5370;50.132;8.626;2022-12-08T15:32:38;5.57;;;4.17;;
10643;SDS011;5370;50.132;8.626;2022-12-08T15:35:04;5.73;;;3.93;;
10643;SDS011;5370;50.132;8.626;2022-12-08T15:37:30;6.10;;;3.67;;
10643;SDS011;5370;50.132;8.626;2022-12-08T15:39:56;9.80;;;3.77;;
10643;SDS011;5370;50.132;8.626;2022-12-08T15:42:21;8.17;;;5.47;;
10643;SDS011;5370;50.132;8.626;2022-12-08T15:44:47;4.83;;;3.97;;
10643;SDS011;5370;50.132;8.626;2022-12-08T15:47:16;5.33;;;3.93;;
10643;SDS011;5370;50.132;8.626;2022-12-08T15:49:45;8.53;;;4.20;;
10643;SDS011;5370;50.132;8.626;2022-12-08T15:52:14;4.47;;;3.50;;
10643;SDS011;5370;50.132;8.626;2022-12-08T15:54:42;5.97;;;3.90;;
10643;SDS011;5370;50.132;8.626;2022-12-08T15:59:47;7.57;;;4.27;;
10643;SDS011;5370;50.132;8.626;2022-12-08T16:02:13;4.73;;;3.73;;
10643;SDS011;5370;50.132;8.626;2022-12-08T16:04:39;4.50;;;3.40;;
10643;SDS011;5370;50.132;8.626;2022-12-08T16:07:05;5.40;;;3.60;;
10643;SDS011;5370;50.132;8.626;2022-12-08T16:09:39;4.80;;;4.10;;
10643;SDS011;5370;50.132;8.626;2022-12-08T16:12:24;5.20;;;3.80;;
10643;SDS011;5370;50.132;8.626;2022-12-08T16:15:10;6.00;;;5.30;;
10643;SDS011;5370;50.132;8.626;2022-12-08T16:17:37;8.53;;;5.90;;
10643;SDS011;5370;50.132;8.626;2022-12-08T16:20:23;7.40;;;5.20;;
10643;SDS011;5370;50.132;8.626;2022-12-08T16:22:48;9.87;;;6.83;;
10643;SDS011;5370;50.132;8.626;2022-12-08T16:25:15;14.67;;;7.27;;
10643;SDS011;5370;50.132;8.626;2022-12-08T16:27:40;8.77;;;6.90;;
10643;SDS011;5370;50.132;8.626;2022-12-08T16:30:08;14.97;;;8.13;;
10643;SDS011;5370;50.132;8.626;2022-12-08T16:32:38;11.07;;;8.13;;
10643;SDS011;5370;50.132;8.626;2022-12-08T16:35:03;11.10;;;7.90;;
10643;SDS011;5370;50.132;8.626;2022-12-08T16:37:29;16.97;;;8.33;;
10643;SDS011;5370;50.132;8.626;2022-12-08T16:39:55;11.97;;;8.53;;
10643;SDS011;5370;50.132;8.626;2022-12-08T16:42:26;20.70;;;9.33;;
10643;SDS011;5370;50.132;8.626;2022-12-08T16:45:14;16.53;;;9.03;;
10643;SDS011;5370;50.132;8.626;2022-12-08T16:47:43;12.77;;;8.93;;